Time;durP1;ratioP1;P1;durP2;ratioP2;P2;SDS_P1;SDS_P2;PMS_P1;PMS_P2;Temp;Humidity;BMP_temperature;BMP_pressure;BME280_temperature;BME280_humidity;BME280_pressure;Samples;Min_cycle;Max_cycle;Signal;HPM_P1;HPM_P2
2023/06/11 00:00:58;;;;;;;3.20;0.30;;;;;;;9.39;55.83;103087.59;5038362;28;20445;-76
2023/06/11 00:03:25;;;;;;;0.50;0.30;;;;;;;9.32;56.16;103079.56;5033826;28;20045;-77
2023/06/11 00:05:52;;;;;;;1.10;0.30;;;;;;;9.30;56.46;103087.34;5033171;28;20474;-76
2023/06/11 00:08:19;;;;;;;1.48;0.20;;;;;;;9.29;55.93;103093.41;5034073;28;20052;-77
2023/06/11 00:10:46;;;;;;;1.15;0.30;;;;;;;9.27;56.23;103086.41;5038621;28;20052;-76
2023/06/11 00:13:15;;;;;;;0.40;0.30;;;;;;;9.23;56.49;103085.44;5038957;28;20133;-76
2023/06/11 00:15:42;;;;;;;4.03;0.60;;;;;;;9.17;56.37;103093.13;5037994;28;20046;-76
2023/06/11 00:18:08;;;;;;;0.77;0.43;;;;;;;9.17;56.63;103095.72;5040648;28;20493;-77
2023/06/11 00:20:41;;;;;;;2.05;0.40;;;;;;;9.09;56.46;103098.13;5040879;28;20052;-76
2023/06/11 00:23:08;;;;;;;1.05;0.73;;;;;;;9.09;56.67;103105.09;5040747;28;20516;-76
2023/06/11 00:25:35;;;;;;;2.05;0.30;;;;;;;9.06;56.64;103103.28;5036427;28;20055;-76
2023/06/11 00:28:02;;;;;;;0.40;0.30;;;;;;;9.01;56.84;103099.66;5038336;28;20053;-76
2023/06/11 00:30:31;;;;;;;0.70;0.50;;;;;;;8.98;56.81;103097.88;5041453;28;20063;-76
2023/06/11 00:32:59;;;;;;;3.33;0.70;;;;;;;8.95;57.20;103107.34;5039337;28;20530;-76
2023/06/11 00:35:26;;;;;;;2.22;1.65;;;;;;;8.87;56.92;103095.84;5037474;28;20049;-76
2023/06/11 00:37:55;;;;;;;0.60;0.40;;;;;;;8.89;57.24;103101.97;5039027;28;20406;-76
2023/06/11 00:40:22;;;;;;;0.50;0.40;;;;;;;8.86;57.09;103100.16;5039630;28;20091;-76
2023/06/11 00:42:50;;;;;;;2.92;0.63;;;;;;;8.84;57.40;103100.97;5040481;28;20347;-77
2023/06/11 00:45:18;;;;;;;1.63;0.50;;;;;;;8.61;57.71;103067.38;5037252;28;20481;-77
2023/06/11 00:47:46;;;;;;;0.63;0.40;;;;;;;8.80;57.84;103100.00;5041907;28;20128;-76
2023/06/11 00:50:15;;;;;;;15.75;1.48;;;;;;;8.76;58.02;103088.59;5042122;28;20069;-76
2023/06/11 00:52:42;;;;;;;3.95;0.50;;;;;;;8.75;57.99;103106.81;5035273;28;20052;-76
2023/06/11 00:55:11;;;;;;;0.60;0.40;;;;;;;8.72;58.02;103096.31;5039919;28;20063;-76
2023/06/11 00:57:40;;;;;;;2.15;0.50;;;;;;;8.70;57.87;103101.47;5031970;28;20099;-76
2023/06/11 01:00:12;;;;;;;2.58;0.40;;;;;;;8.64;57.78;103097.84;5037033;28;20049;-77
2023/06/11 01:02:44;;;;;;;2.58;0.47;;;;;;;8.65;57.94;103105.72;5036410;28;20057;-76
2023/06/11 01:05:17;;;;;;;1.85;0.40;;;;;;;8.61;57.78;103098.63;5038752;28;20041;-77
2023/06/11 01:07:50;;;;;;;0.95;0.43;;;;;;;8.50;58.21;103089.66;5037796;28;20498;-76
2023/06/11 01:10:18;;;;;;;1.50;0.40;;;;;;;8.53;58.22;103094.94;5037138;28;20059;-76
2023/06/11 01:12:45;;;;;;;1.83;0.40;;;;;;;8.57;58.18;103109.81;5037799;28;20386;-77
2023/06/11 01:15:13;;;;;;;2.75;0.40;;;;;;;8.52;58.23;103106.22;5040827;28;20059;-77
2023/06/11 01:17:47;;;;;;;0.60;0.40;;;;;;;8.44;58.39;103099.91;5031698;28;20060;-76
2023/06/11 01:20:18;;;;;;;1.55;0.40;;;;;;;8.50;58.16;103110.47;5039267;28;20046;-76
2023/06/11 01:23:14;;;;;;;1.95;0.40;;;;;;;8.48;57.95;103112.16;5033052;28;20041;-76
2023/06/11 01:25:50;;;;;;;2.35;0.43;;;;;;;8.38;58.46;103103.19;5034245;28;20102;-77
2023/06/11 01:28:26;;;;;;;2.10;0.40;;;;;;;8.43;58.64;103116.38;5039870;28;20091;-76
2023/06/11 01:30:55;;;;;;;0.70;0.38;;;;;;;8.30;58.47;103097.75;5034549;28;20052;-76
2023/06/11 01:33:24;;;;;;;1.15;0.50;;;;;;;8.38;58.61;103120.53;5034886;28;20052;-76
2023/06/11 01:35:58;;;;;;;0.75;0.35;;;;;;;8.35;58.67;103118.72;5021465;28;20138;-77
2023/06/11 01:38:25;;;;;;;0.60;0.50;;;;;;;8.32;58.95;103119.53;5035777;28;20040;-77
2023/06/11 01:40:55;;;;;;;0.40;0.40;;;;;;;8.31;58.94;103124.66;5039431;28;20489;-76
2023/06/11 01:43:25;;;;;;;3.85;0.50;;;;;;;8.29;59.00;103124.63;5039566;28;20084;-76
2023/06/11 01:45:52;;;;;;;1.17;0.63;;;;;;;8.18;58.79;103109.56;5035655;28;20384;-76
2023/06/11 01:48:20;;;;;;;0.50;0.40;;;;;;;8.15;59.13;103110.34;5038900;28;20531;-76
2023/06/11 01:50:47;;;;;;;0.55;0.30;;;;;;;8.23;58.91;103131.41;5038442;28;20561;-76
2023/06/11 01:53:16;;;;;;;4.15;0.40;;;;;;;8.17;59.13;103119.09;5039628;28;20488;-76
2023/06/11 01:55:43;;;;;;;0.85;0.85;;;;;;;8.19;59.37;103125.19;5035375;28;20124;-77
2023/06/11 01:58:10;;;;;;;0.68;0.40;;;;;;;8.13;59.29;103118.94;5037280;28;20045;-76
2023/06/11 02:00:38;;;;;;;0.60;0.38;;;;;;;8.16;59.61;103129.44;5038848;28;20053;-76
2023/06/11 02:03:06;;;;;;;0.65;0.32;;;;;;;8.13;59.63;103130.22;5037049;28;20075;-76
2023/06/11 02:05:33;;;;;;;1.15;0.47;;;;;;;8.06;59.62;103118.78;5039478;28;20059;-77
2023/06/11 02:08:00;;;;;;;0.88;0.50;;;;;;;8.13;59.48;103131.97;5041550;28;20075;-76
2023/06/11 02:10:27;;;;;;;0.77;0.45;;;;;;;8.09;59.61;103131.88;5036093;28;20056;-77
2023/06/11 02:12:54;;;;;;;2.20;0.50;;;;;;;8.10;60.00;103135.34;5040579;28;20425;-77
2023/06/11 02:15:22;;;;;;;6.30;0.50;;;;;;;8.08;59.98;103130.13;5029081;28;20053;-77
2023/06/11 02:17:50;;;;;;;2.95;0.50;;;;;;;7.97;60.00;103115.91;5029698;28;20075;-76
2023/06/11 02:20:17;;;;;;;0.45;0.45;;;;;;;8.08;60.15;103139.63;5036792;28;20041;-76
2023/06/11 02:22:44;;;;;;;1.35;0.40;;;;;;;8.06;59.98;103138.72;5035856;28;20050;-77
2023/06/11 02:25:11;;;;;;;0.70;0.38;;;;;;;8.06;60.37;103136.13;5038453;28;20488;-76
2023/06/11 02:27:38;;;;;;;1.38;0.50;;;;;;;8.05;60.25;103132.63;5036739;28;20044;-77
2023/06/11 02:30:06;;;;;;;0.70;0.50;;;;;;;8.05;60.34;103130.03;5036417;28;20404;-77
2023/06/11 02:32:33;;;;;;;3.55;0.38;;;;;;;8.00;60.27;103129.00;5037599;28;20059;-77
2023/06/11 02:35:02;;;;;;;0.57;0.40;;;;;;;8.02;60.61;103132.50;5036651;28;20053;-77
2023/06/11 02:37:29;;;;;;;0.57;0.40;;;;;;;7.96;60.59;103121.91;5037376;28;20045;-76
2023/06/11 02:39:55;;;;;;;6.63;0.80;;;;;;;7.95;60.68;103116.69;5039619;28;20446;-77
2023/06/11 02:42:22;;;;;;;1.77;0.43;;;;;;;8.05;60.86;103134.31;5036493;28;20464;-77
2023/06/11 02:44:49;;;;;;;2.05;0.40;;;;;;;7.80;60.86;103094.56;5038805;28;20055;-77
2023/06/11 02:47:16;;;;;;;0.90;0.43;;;;;;;8.05;61.11;103131.72;5036333;28;20056;-77
2023/06/11 02:49:43;;;;;;;2.83;0.52;;;;;;;8.06;61.23;103134.38;5038930;28;20044;-76
2023/06/11 02:52:11;;;;;;;0.68;0.40;;;;;;;8.00;61.39;103128.13;5033029;28;20056;-77
2023/06/11 02:54:38;;;;;;;0.40;0.40;;;;;;;8.09;61.36;103141.41;5035949;28;20045;-77
2023/06/11 02:57:06;;;;;;;1.40;0.50;;;;;;;8.10;61.86;103135.34;5039015;28;20052;-77
2023/06/11 02:59:33;;;;;;;2.72;0.57;;;;;;;8.07;61.71;103130.94;5035354;28;20127;-77
2023/06/11 03:02:00;;;;;;;1.63;0.50;;;;;;;7.95;61.80;103107.16;5038877;28;20045;-76
2023/06/11 03:04:27;;;;;;;0.60;0.50;;;;;;;8.15;61.95;103133.78;5040323;28;20621;-77
2023/06/11 03:06:54;;;;;;;0.55;0.40;;;;;;;8.17;62.34;103133.81;5039418;28;20060;-77
2023/06/11 03:09:23;;;;;;;0.70;0.43;;;;;;;8.19;62.31;103133.00;5038232;28;20059;-77
2023/06/11 03:11:50;;;;;;;1.15;0.43;;;;;;;8.21;62.70;103133.94;5039316;28;20084;-77
2023/06/11 03:14:20;;;;;;;0.77;0.50;;;;;;;8.23;62.62;103134.88;5035502;28;20490;-77
2023/06/11 03:16:47;;;;;;;1.33;0.60;;;;;;;8.26;62.87;103139.31;5037839;28;20480;-77
2023/06/11 03:19:13;;;;;;;0.75;0.70;;;;;;;8.30;63.06;103141.13;5039336;28;20049;-77
2023/06/11 03:21:40;;;;;;;2.40;0.50;;;;;;;8.33;63.30;103139.50;5035064;28;20051;-76
2023/06/11 03:24:07;;;;;;;3.55;0.60;;;;;;;8.38;63.19;103136.16;5041032;28;20389;-77
2023/06/11 03:26:36;;;;;;;2.63;0.43;;;;;;;8.42;63.36;103140.63;5036374;28;20048;-76
2023/06/11 03:29:03;;;;;;;0.68;0.43;;;;;;;8.46;63.67;103134.69;5036975;28;20049;-77
2023/06/11 03:31:30;;;;;;;0.85;0.70;;;;;;;8.45;63.89;103135.50;5032866;28;20041;-77
2023/06/11 03:33:57;;;;;;;3.63;0.60;;;;;;;8.54;64.27;103136.69;5038621;28;20148;-77
2023/06/11 03:36:25;;;;;;;2.05;0.57;;;;;;;8.60;64.82;103143.78;5036967;28;20049;-77
2023/06/11 03:38:51;;;;;;;3.15;0.60;;;;;;;8.65;64.98;103141.28;5037462;28;20053;-77
2023/06/11 03:41:19;;;;;;;2.70;0.60;;;;;;;8.62;65.30;103131.66;5038436;28;20055;-77
2023/06/11 03:43:47;;;;;;;1.48;0.55;;;;;;;8.74;65.28;103147.66;5035971;28;20138;-76
2023/06/11 03:46:14;;;;;;;4.25;1.88;;;;;;;8.84;65.85;103147.88;5035862;28;20048;-80
2023/06/11 03:48:41;;;;;;;0.80;0.50;;;;;;;8.91;65.85;103153.31;5036464;28;20045;-77
2023/06/11 03:51:08;;;;;;;1.90;1.58;;;;;;;9.00;65.91;103147.44;5035167;28;20053;-77
2023/06/11 03:53:35;;;;;;;1.80;0.68;;;;;;;9.08;66.55;103155.44;5039581;28;20049;-76
2023/06/11 03:56:02;;;;;;;2.25;0.80;;;;;;;9.19;66.60;103152.31;5040923;28;20273;-77
2023/06/11 03:58:29;;;;;;;1.10;0.90;;;;;;;9.25;66.54;103146.34;5039797;28;20132;-76
2023/06/11 04:00:57;;;;;;;2.58;0.70;;;;;;;9.40;66.67;103151.06;5040251;28;20048;-76
2023/06/11 04:03:24;;;;;;;1.33;0.60;;;;;;;9.41;67.00;103138.03;5040296;28;20040;-77
2023/06/11 04:05:51;;;;;;;3.17;0.70;;;;;;;9.63;67.00;103149.00;5038457;28;20045;-77
2023/06/11 04:08:18;;;;;;;2.08;0.75;;;;;;;9.57;67.27;103115.81;5022344;28;20045;-77
2023/06/11 04:10:45;;;;;;;2.92;0.90;;;;;;;9.87;67.23;103149.53;5036362;28;20506;-77
2023/06/11 04:13:12;;;;;;;1.20;0.73;;;;;;;10.00;67.48;103145.50;5044013;28;20092;-77
2023/06/11 04:15:39;;;;;;;2.10;0.70;;;;;;;10.09;67.10;103145.69;5041345;28;20414;-77
2023/06/11 04:18:09;;;;;;;0.70;0.70;;;;;;;10.27;67.35;103144.34;5039310;28;20049;-77
2023/06/11 04:20:36;;;;;;;1.25;0.50;;;;;;;10.37;68.05;103135.84;5038649;28;20049;-77
2023/06/11 04:23:03;;;;;;;2.63;0.70;;;;;;;10.55;68.13;103146.66;5041265;28;20699;-76
2023/06/11 04:25:31;;;;;;;0.88;0.57;;;;;;;10.73;67.91;103151.38;5040147;28;20041;-77
2023/06/11 04:27:58;;;;;;;2.88;0.50;;;;;;;10.86;67.95;103146.38;5038281;28;20049;-76
2023/06/11 04:30:26;;;;;;;0.70;0.70;;;;;;;11.05;68.19;103148.47;5040289;28;20073;-75
2023/06/11 04:32:54;;;;;;;1.02;0.57;;;;;;;11.22;68.15;103152.25;5038495;28;20053;-75
2023/06/11 04:35:23;;;;;;;2.47;0.60;;;;;;;11.38;68.40;103142.91;5040835;28;20048;-76
2023/06/11 04:37:51;;;;;;;1.58;0.45;;;;;;;11.56;68.40;103138.84;5040324;28;20107;-76
2023/06/11 04:40:20;;;;;;;1.15;0.60;;;;;;;11.74;68.25;103146.06;5041989;28;20122;-76
2023/06/11 04:42:48;;;;;;;1.38;0.40;;;;;;;11.89;67.70;103141.97;5039242;28;20128;-76
2023/06/11 04:45:18;;;;;;;0.85;0.38;;;;;;;12.06;67.44;103142.19;5037104;28;20336;-75
2023/06/11 04:47:45;;;;;;;0.57;0.30;;;;;;;12.25;66.67;103142.44;5038211;28;20485;-76
2023/06/11 04:50:12;;;;;;;0.38;0.30;;;;;;;12.44;66.75;103140.94;5036641;28;20056;-76
2023/06/11 04:52:43;;;;;;;1.75;0.30;;;;;;;12.44;66.36;103114.72;5039115;28;20053;-76
2023/06/11 04:55:11;;;;;;;0.47;0.30;;;;;;;12.71;65.94;103135.97;5042077;28;20045;-75
2023/06/11 04:57:39;;;;;;;0.40;0.30;;;;;;;12.96;65.45;103141.47;5043337;28;20049;-75
2023/06/11 05:00:08;;;;;;;0.32;0.20;;;;;;;13.19;64.74;103144.31;5040837;28;20049;-76
2023/06/11 05:02:37;;;;;;;1.75;0.30;;;;;;;13.39;64.67;103144.50;5039354;28;20061;-76
2023/06/11 05:05:05;;;;;;;0.40;0.20;;;;;;;13.52;63.65;103133.22;5035088;28;20433;-76
2023/06/11 05:07:32;;;;;;;0.75;0.30;;;;;;;13.70;63.33;103138.59;5035670;28;20049;-75
2023/06/11 05:10:02;;;;;;;0.85;0.22;;;;;;;13.88;62.70;103143.06;5039572;28;20045;-75
2023/06/11 05:12:29;;;;;;;1.77;0.20;;;;;;;14.07;62.35;103141.41;5040001;28;20064;-76
2023/06/11 05:14:56;;;;;;;0.30;0.22;;;;;;;14.27;61.40;103135.38;5040226;28;20496;-76
2023/06/11 05:17:22;;;;;;;0.38;0.20;;;;;;;14.47;60.57;103135.44;5042954;28;20369;-75
2023/06/11 05:19:51;;;;;;;1.67;0.20;;;;;;;14.67;59.72;103132.91;5038482;28;20045;-76
2023/06/11 05:22:18;;;;;;;1.58;0.20;;;;;;;14.89;59.25;103132.06;5039817;28;20403;-76
2023/06/11 05:24:47;;;;;;;0.95;0.20;;;;;;;15.06;58.50;103132.06;5039182;28;20045;-75
2023/06/11 05:27:15;;;;;;;0.30;0.20;;;;;;;15.23;58.45;103132.09;5035540;28;20049;-75
2023/06/11 05:29:42;;;;;;;0.55;0.30;;;;;;;15.38;57.93;103132.06;5040046;28;20041;-76
2023/06/11 05:32:10;;;;;;;0.43;0.20;;;;;;;15.55;56.93;103128.53;5037769;28;20308;-76
2023/06/11 05:34:37;;;;;;;0.95;0.20;;;;;;;15.70;56.26;103123.25;5040549;28;20132;-76
2023/06/11 05:37:04;;;;;;;0.40;0.20;;;;;;;15.88;55.88;103136.41;5037017;28;20049;-75
2023/06/11 05:39:31;;;;;;;0.30;0.30;;;;;;;15.99;54.76;103131.06;5022017;28;20870;-76
2023/06/11 05:41:58;;;;;;;0.10;0.10;;;;;;;16.04;54.05;103129.31;5036004;28;20045;-76
2023/06/11 05:44:26;;;;;;;1.95;0.20;;;;;;;16.14;53.37;103130.16;5040273;28;20053;-76
2023/06/11 05:46:53;;;;;;;0.10;0.10;;;;;;;16.20;52.41;103135.41;5038779;28;21338;-75
2023/06/11 05:49:20;;;;;;;0.93;0.17;;;;;;;16.26;52.20;103129.22;5040951;28;20843;-76
2023/06/11 05:51:47;;;;;;;0.57;0.10;;;;;;;16.28;51.54;103128.34;5038327;28;20045;-76
2023/06/11 05:54:14;;;;;;;1.90;0.10;;;;;;;16.45;51.32;103135.25;5040372;28;20042;-76
2023/06/11 05:56:41;;;;;;;0.35;0.20;;;;;;;16.55;51.15;103136.97;5034098;28;20047;-76
2023/06/11 05:59:08;;;;;;;0.38;0.20;;;;;;;16.63;50.59;103130.78;5037211;28;20045;-76
2023/06/11 06:01:36;;;;;;;0.20;0.10;;;;;;;16.69;50.01;103134.25;5039150;28;20045;-75
2023/06/11 06:04:04;;;;;;;0.22;0.10;;;;;;;16.69;49.98;103129.84;5037242;28;20075;-75
2023/06/11 06:06:31;;;;;;;0.10;0.10;;;;;;;16.74;49.38;103125.44;5039978;28;20041;-76
2023/06/11 06:08:59;;;;;;;0.10;0.10;;;;;;;16.78;49.00;103124.53;5039273;28;20501;-76
2023/06/11 06:11:25;;;;;;;1.17;0.10;;;;;;;16.78;48.64;103113.97;5039414;28;20531;-76
2023/06/11 06:13:52;;;;;;;0.20;0.10;;;;;;;16.89;48.47;103120.97;5035046;28;20058;-75
2023/06/11 06:16:20;;;;;;;0.32;0.30;;;;;;;16.91;48.12;103125.34;5037197;28;20052;-76
2023/06/11 06:18:48;;;;;;;0.60;0.10;;;;;;;16.96;47.82;103117.38;5036461;28;20520;-75
2023/06/11 06:21:15;;;;;;;0.15;0.10;;;;;;;16.95;47.92;103113.00;5035753;28;20057;-75
2023/06/11 06:23:42;;;;;;;0.10;0.10;;;;;;;17.01;48.04;103121.72;5031880;28;20049;-76
2023/06/11 06:26:09;;;;;;;0.85;0.10;;;;;;;17.05;47.88;103117.31;5032969;28;20547;-76
2023/06/11 06:28:36;;;;;;;0.65;0.13;;;;;;;17.02;47.35;103112.94;5038582;28;20227;-76
2023/06/11 06:31:07;;;;;;;3.45;0.10;;;;;;;17.11;47.65;103122.53;5035796;28;20059;-76
2023/06/11 06:33:37;;;;;;;1.45;0.10;;;;;;;17.13;47.41;103118.09;5033650;28;20054;-76
2023/06/11 06:36:06;;;;;;;0.13;0.10;;;;;;;17.16;46.93;103127.78;5034754;28;20037;-76
2023/06/11 06:38:35;;;;;;;0.88;0.05;;;;;;;17.13;47.21;103117.22;5037414;28;20532;-76
2023/06/11 06:41:02;;;;;;;2.05;0.20;;;;;;;17.27;46.76;103124.13;5038877;28;20574;-77
2023/06/11 06:43:29;;;;;;;0.40;0.10;;;;;;;17.31;46.41;103110.03;5034459;28;20080;-76
2023/06/11 06:45:56;;;;;;;0.38;0.10;;;;;;;17.38;46.29;103105.56;5034488;28;20052;-76
2023/06/11 06:48:23;;;;;;;0.10;0.10;;;;;;;17.57;45.82;103123.88;5034863;28;20429;-76
2023/06/11 06:50:51;;;;;;;0.22;0.10;;;;;;;17.67;45.70;103121.13;5037030;28;20060;-76
2023/06/11 06:53:19;;;;;;;0.20;0.10;;;;;;;17.79;45.86;103116.59;5038822;28;20049;-76
2023/06/11 06:55:46;;;;;;;0.55;0.10;;;;;;;17.80;45.87;103099.88;5038567;28;20048;-76
2023/06/11 06:58:13;;;;;;;0.15;0.10;;;;;;;17.92;45.72;103113.81;5039052;28;20047;-76
2023/06/11 07:00:40;;;;;;;0.47;0.20;;;;;;;18.00;45.88;103111.09;5038074;28;20590;-77
2023/06/11 07:03:09;;;;;;;0.20;0.10;;;;;;;18.02;45.04;103114.59;5039915;28;20396;-77
2023/06/11 07:05:36;;;;;;;0.10;0.10;;;;;;;17.99;44.76;103090.84;5038347;28;20045;-77
2023/06/11 07:08:03;;;;;;;0.10;0.10;;;;;;;18.12;44.38;103102.13;5040267;28;20048;-77
2023/06/11 07:10:31;;;;;;;0.98;0.13;;;;;;;18.27;44.24;103103.66;5036132;28;20409;-76
2023/06/11 07:12:58;;;;;;;0.10;0.10;;;;;;;18.37;44.67;103105.31;5038530;28;20052;-77
2023/06/11 07:15:25;;;;;;;0.20;0.10;;;;;;;18.43;44.54;103103.44;5035388;28;20145;-77
2023/06/11 07:17:52;;;;;;;0.10;0.10;;;;;;;18.52;44.80;103104.22;5032781;28;20050;-77
2023/06/11 07:20:19;;;;;;;0.63;0.10;;;;;;;18.58;44.81;103104.97;5039164;28;20051;-78
2023/06/11 07:22:46;;;;;;;0.10;0.10;;;;;;;18.68;44.24;103105.75;5038713;28;20659;-78
2023/06/11 07:25:13;;;;;;;1.65;0.10;;;;;;;18.79;43.52;103108.25;5037567;28;20572;-78
2023/06/11 07:27:42;;;;;;;0.30;0.10;;;;;;;18.92;42.06;103108.91;5039742;28;20057;-78
2023/06/11 07:30:11;;;;;;;3.95;0.20;;;;;;;19.01;42.13;103109.66;5038680;28;20111;-78
2023/06/11 07:32:38;;;;;;;0.10;0.10;;;;;;;19.09;41.32;103104.22;5040036;28;20053;-80
2023/06/11 07:35:05;;;;;;;1.73;0.10;;;;;;;19.08;40.51;103087.44;5041556;28;20049;-78
2023/06/11 07:37:33;;;;;;;0.17;0.10;;;;;;;19.27;40.14;103095.09;5038401;28;20550;-78
2023/06/11 07:40:00;;;;;;;0.20;0.10;;;;;;;19.38;38.79;103098.41;5042206;28;20038;-77
2023/06/11 07:42:26;;;;;;;0.40;0.10;;;;;;;19.40;38.48;103079.81;5041321;28;20049;-78
2023/06/11 07:44:55;;;;;;;0.40;0.10;;;;;;;19.55;38.19;103091.03;5042274;28;20045;-79
2023/06/11 07:47:22;;;;;;;0.20;0.10;;;;;;;19.64;36.82;103091.75;5041497;28;20508;-78
2023/06/11 07:49:49;;;;;;;0.30;0.10;;;;;;;19.73;36.61;103094.25;5040720;28;20047;-78
2023/06/11 07:52:16;;;;;;;2.15;0.20;;;;;;;19.81;36.54;103096.72;5043580;28;20562;-78
2023/06/11 07:54:43;;;;;;;3.35;0.20;;;;;;;19.86;36.32;103094.84;5039268;28;20045;-78
2023/06/11 07:57:12;;;;;;;0.60;0.10;;;;;;;19.88;35.43;103091.28;5036073;28;20052;-77
2023/06/11 07:59:41;;;;;;;0.40;0.10;;;;;;;19.93;34.76;103091.19;5038877;28;20041;-77
2023/06/11 08:02:10;;;;;;;0.13;0.10;;;;;;;19.97;34.12;103079.59;5045195;28;20037;-77
2023/06/11 08:04:37;;;;;;;0.20;0.15;;;;;;;19.98;33.68;103076.91;5043726;28;20045;-78
2023/06/11 08:07:05;;;;;;;0.10;0.10;;;;;;;20.11;33.04;103096.09;5041746;28;20045;-77
2023/06/11 08:09:35;;;;;;;0.00;0.00;;;;;;;20.15;33.20;103083.63;5041119;28;20053;-78
2023/06/11 08:12:03;;;;;;;1.02;0.20;;;;;;;20.17;33.17;103077.38;5044129;28;20060;-78
2023/06/11 08:14:30;;;;;;;0.30;0.10;;;;;;;20.30;33.12;103088.59;5040737;28;20479;-79
2023/06/11 08:16:57;;;;;;;0.15;0.10;;;;;;;20.35;32.77;103085.81;5041726;28;20408;-79
2023/06/11 08:19:25;;;;;;;6.15;0.90;;;;;;;20.39;33.13;103088.38;5040016;28;20052;-78
2023/06/11 08:21:52;;;;;;;0.20;0.10;;;;;;;20.40;32.38;103092.78;5042375;28;20042;-78
2023/06/11 08:24:21;;;;;;;0.17;0.10;;;;;;;20.43;32.27;103087.44;5037854;28;20049;-78
2023/06/11 08:26:48;;;;;;;0.20;0.10;;;;;;;20.49;32.11;103085.50;5038830;28;20063;-76
2023/06/11 08:29:15;;;;;;;0.20;0.10;;;;;;;20.50;31.78;103071.34;5040007;28;20055;-78
2023/06/11 08:31:42;;;;;;;0.17;0.03;;;;;;;20.49;31.59;103061.63;5030904;28;20501;-79
2023/06/11 08:34:09;;;;;;;1.60;0.10;;;;;;;20.56;31.53;103068.56;5037211;28;20084;-79
2023/06/11 08:36:38;;;;;;;0.10;0.00;;;;;;;20.66;31.60;103075.38;5034526;28;20124;-78
2023/06/11 08:39:05;;;;;;;0.22;0.10;;;;;;;20.60;31.24;103059.63;5037274;28;20103;-77
2023/06/11 08:41:32;;;;;;;1.17;0.10;;;;;;;20.74;31.45;103080.53;5035948;28;20048;-78
2023/06/11 08:43:59;;;;;;;0.20;0.10;;;;;;;20.70;31.81;103065.59;5039273;28;20056;-77
2023/06/11 08:46:26;;;;;;;0.80;0.10;;;;;;;20.68;32.26;103060.31;5039240;28;20048;-77
2023/06/11 08:48:58;;;;;;;0.17;0.10;;;;;;;20.67;31.26;103054.13;5039925;28;20045;-77
2023/06/11 08:51:28;;;;;;;3.60;0.10;;;;;;;20.76;30.96;103076.94;5037990;28;20076;-77
2023/06/11 08:53:57;;;;;;;0.20;0.10;;;;;;;20.71;31.39;103070.84;5040174;28;20056;-77
2023/06/11 08:56:25;;;;;;;1.80;0.10;;;;;;;20.74;31.46;103065.47;5039021;28;20048;-78
2023/06/11 08:58:54;;;;;;;1.45;0.10;;;;;;;20.79;30.95;103065.34;5034852;28;20045;-77
2023/06/11 09:01:22;;;;;;;1.75;0.10;;;;;;;20.83;30.89;103070.56;5037569;28;20126;-77
2023/06/11 09:03:49;;;;;;;1.42;0.10;;;;;;;20.86;31.06;103070.47;5037204;28;20078;-78
2023/06/11 09:06:16;;;;;;;1.23;0.10;;;;;;;20.76;30.35;103045.06;5035643;28;20064;-77
2023/06/11 09:08:43;;;;;;;0.30;0.10;;;;;;;20.94;30.42;103069.41;5035073;28;20711;-78
2023/06/11 09:11:16;;;;;;;0.20;0.10;;;;;;;20.97;30.77;103066.66;5034480;28;20678;-78
2023/06/11 09:13:43;;;;;;;1.55;0.10;;;;;;;20.97;30.79;103062.22;5026607;28;20048;-79
2023/06/11 09:16:10;;;;;;;0.50;0.10;;;;;;;21.00;29.95;103063.94;5038044;28;20590;-77
2023/06/11 09:18:37;;;;;;;2.55;0.03;;;;;;;21.00;30.58;103061.28;5036671;28;20044;-77
2023/06/11 09:21:04;;;;;;;1.10;0.10;;;;;;;21.02;30.63;103062.13;5036442;28;20374;-78
2023/06/11 09:23:32;;;;;;;1.27;0.00;;;;;;;20.99;29.84;103055.09;5038890;28;20059;-77
2023/06/11 09:26:00;;;;;;;8.40;0.63;;;;;;;20.98;29.59;103055.16;5039172;28;20075;-77
2023/06/11 09:28:32;;;;;;;0.32;0.10;;;;;;;21.04;29.87;103054.97;5036807;28;20493;-78
2023/06/11 09:31:01;;;;;;;0.82;0.10;;;;;;;21.05;30.05;103054.06;5035622;28;20254;-77
2023/06/11 09:33:28;;;;;;;4.00;0.10;;;;;;;21.07;29.65;103065.53;5026094;28;20176;-78
2023/06/11 09:35:58;;;;;;;0.10;0.10;;;;;;;21.07;29.51;103060.22;5032543;28;20148;-79
2023/06/11 09:38:25;;;;;;;1.70;0.10;;;;;;;21.09;29.13;103064.56;5039691;28;20533;-78
2023/06/11 09:40:55;;;;;;;0.10;0.10;;;;;;;21.04;29.30;103049.66;5036817;28;20045;-78
2023/06/11 09:43:23;;;;;;;0.30;0.10;;;;;;;21.09;29.55;103056.59;5035322;28;20053;-77
2023/06/11 09:45:53;;;;;;;0.10;0.10;;;;;;;21.09;29.34;103056.59;5035397;28;20052;-79
2023/06/11 09:48:21;;;;;;;0.85;0.10;;;;;;;21.09;29.51;103053.09;5033571;28;20485;-80
2023/06/11 09:50:49;;;;;;;0.20;0.10;;;;;;;21.11;29.47;103049.44;5036510;28;20094;-79
2023/06/11 09:53:18;;;;;;;0.75;0.10;;;;;;;21.08;28.96;103040.69;5034299;28;20182;-76
2023/06/11 09:55:48;;;;;;;0.57;0.10;;;;;;;21.12;29.00;103042.38;5037322;28;20271;-77
2023/06/11 09:58:21;;;;;;;0.40;0.10;;;;;;;21.10;28.32;103046.84;5034533;28;20472;-77
2023/06/11 10:00:49;;;;;;;2.67;0.15;;;;;;;21.02;28.65;103035.53;5038288;28;20049;-77
2023/06/11 10:03:17;;;;;;;1.67;0.13;;;;;;;21.09;28.61;103045.09;5032691;28;20055;-77
2023/06/11 10:05:44;;;;;;;0.60;0.10;;;;;;;21.09;28.48;103050.44;5036517;28;20038;-77
2023/06/11 10:08:15;;;;;;;0.10;0.10;;;;;;;20.99;28.46;103027.66;5035098;28;20049;-77
2023/06/11 10:10:45;;;;;;;2.05;0.10;;;;;;;21.05;28.22;103044.28;5035280;28;20053;-78
2023/06/11 10:13:13;;;;;;;0.10;0.10;;;;;;;21.00;28.68;103034.69;5035639;28;20049;-77
2023/06/11 10:15:40;;;;;;;2.90;0.10;;;;;;;21.05;28.43;103044.28;5037878;28;20577;-77
2023/06/11 10:18:14;;;;;;;0.15;0.10;;;;;;;21.00;28.40;103040.88;5034402;28;20056;-77
2023/06/11 10:20:54;;;;;;;1.20;0.10;;;;;;;20.99;28.47;103032.97;5040351;28;20119;-77
2023/06/11 10:23:21;;;;;;;1.50;0.20;;;;;;;20.96;28.11;103039.22;5032309;28;20513;-76
2023/06/11 10:25:55;;;;;;;0.20;0.17;;;;;;;21.00;28.28;103040.00;5037030;28;20054;-77
2023/06/11 10:28:35;;;;;;;7.88;2.30;;;;;;;20.99;28.09;103041.81;5036750;28;20421;-77
2023/06/11 10:31:02;;;;;;;1.60;0.10;;;;;;;20.97;28.37;103046.28;5035449;28;20064;-76
2023/06/11 10:33:37;;;;;;;0.40;0.10;;;;;;;20.94;28.17;103046.34;5037239;28;20049;-78
2023/06/11 10:36:05;;;;;;;3.15;0.10;;;;;;;20.93;28.08;103047.28;5035104;28;20468;-75
2023/06/11 10:38:38;;;;;;;0.13;0.10;;;;;;;20.91;28.44;103042.91;5037096;28;20560;-76
2023/06/11 10:41:05;;;;;;;1.02;0.20;;;;;;;20.87;28.50;103040.34;5036077;28;20041;-75
2023/06/11 10:43:37;;;;;;;0.17;0.10;;;;;;;20.86;28.56;103046.56;5026990;28;20045;-77
2023/06/11 10:46:06;;;;;;;1.80;0.10;;;;;;;20.78;28.33;103029.09;5031881;28;20041;-77
2023/06/11 10:48:34;;;;;;;0.68;0.03;;;;;;;20.82;28.46;103042.25;5036078;28;20501;-77
2023/06/11 10:51:02;;;;;;;0.10;0.10;;;;;;;20.77;27.95;103033.50;5036734;28;20052;-77
2023/06/11 10:53:41;;;;;;;0.10;0.10;;;;;;;20.81;28.55;103045.81;5038133;28;20448;-76
2023/06/11 10:56:09;;;;;;;0.38;0.10;;;;;;;20.71;28.80;103038.09;5030428;28;20046;-77
2023/06/11 10:58:36;;;;;;;2.30;0.20;;;;;;;20.71;29.04;103043.41;5033240;28;20440;-77
2023/06/11 11:01:06;;;;;;;2.10;0.10;;;;;;;20.69;29.46;103040.81;5038683;28;20430;-77
2023/06/11 11:03:34;;;;;;;0.20;0.10;;;;;;;20.64;29.03;103040.06;5031591;28;20064;-77
2023/06/11 11:06:01;;;;;;;0.13;0.10;;;;;;;20.62;28.98;103041.88;5037329;28;20045;-77
2023/06/11 11:08:30;;;;;;;0.10;0.10;;;;;;;20.58;29.17;103042.88;5036506;28;20071;-77
2023/06/11 11:11:00;;;;;;;1.13;0.10;;;;;;;20.54;28.82;103039.38;5037645;28;20049;-77
2023/06/11 11:13:27;;;;;;;0.38;0.20;;;;;;;20.49;28.94;103037.72;5032567;28;20049;-77
2023/06/11 11:15:54;;;;;;;4.07;0.20;;;;;;;20.37;29.06;103022.97;5034976;28;20131;-77
2023/06/11 11:18:22;;;;;;;0.15;0.10;;;;;;;20.38;28.80;103030.03;5036771;28;20052;-77
2023/06/11 11:20:53;;;;;;;0.20;0.20;;;;;;;20.30;29.25;103019.59;5034954;28;20049;-77
2023/06/11 11:23:20;;;;;;;5.10;0.13;;;;;;;20.26;29.09;103031.19;5034151;28;20111;-78
2023/06/11 11:25:47;;;;;;;0.68;0.05;;;;;;;20.18;29.13;103022.53;5035201;28;20049;-78
2023/06/11 11:28:15;;;;;;;0.22;0.10;;;;;;;20.06;28.98;103006.88;5036727;28;20041;-78
2023/06/11 11:30:42;;;;;;;1.25;0.17;;;;;;;20.09;29.75;103015.63;5035681;28;20513;-80
2023/06/11 11:33:11;;;;;;;1.35;0.30;;;;;;;20.05;29.81;103008.66;5038458;28;20610;-80